Time;durP1;ratioP1;P1;durP2;ratioP2;P2;SDS_P1;SDS_P2;PMS_P1;PMS_P2;Temp;Humidity;BMP_temperature;BMP_pressure;BME280_temperature;BME280_humidity;BME280_pressure;Samples;Min_cycle;Max_cycle;Signal;HPM_P1;HPM_P2
2022/04/23 00:00:19;;;;;;;10.07;5.25;;;11.40;64.30;;;;;;5033927;28;20033;-69
2022/04/23 00:02:49;;;;;;;7.93;5.28;;;11.40;64.40;;;;;;5032382;28;20399;-69
2022/04/23 00:05:17;;;;;;;11.30;5.20;;;11.40;64.50;;;;;;5050152;28;20045;-69
2022/04/23 00:07:44;;;;;;;8.93;4.75;;;11.40;64.60;;;;;;5048971;28;20047;-70
2022/04/23 00:10:11;;;;;;;10.00;5.72;;;11.30;64.50;;;;;;5049496;28;20088;-70
2022/04/23 00:12:39;;;;;;;11.00;5.47;;;11.30;64.70;;;;;;5049084;28;20044;-69
2022/04/23 00:15:07;;;;;;;12.95;6.22;;;11.30;64.80;;;;;;5047817;28;20155;-69
2022/04/23 00:17:34;;;;;;;9.57;5.55;;;11.20;65.00;;;;;;5049544;28;20144;-70
2022/04/23 00:20:01;;;;;;;11.57;6.30;;;11.20;65.00;;;;;;5033495;28;20052;-69
2022/04/23 00:22:30;;;;;;;11.80;5.63;;;11.20;65.10;;;;;;5046399;28;20052;-69
2022/04/23 00:24:57;;;;;;;8.70;5.20;;;11.20;65.30;;;;;;5047915;28;20454;-70
2022/04/23 00:27:24;;;;;;;10.07;5.85;;;11.30;65.40;;;;;;5048073;28;20072;-69
2022/04/23 00:29:52;;;;;;;10.70;5.97;;;11.20;65.50;;;;;;5049569;28;20068;-69
2022/04/23 00:32:19;;;;;;;13.23;6.32;;;11.20;65.90;;;;;;5049816;28;20081;-69
2022/04/23 00:34:46;;;;;;;11.68;6.20;;;11.20;66.00;;;;;;5049479;28;20073;-68
2022/04/23 00:37:14;;;;;;;10.05;6.05;;;11.20;66.20;;;;;;5049239;28;20045;-71
2022/04/23 00:39:42;;;;;;;11.55;5.90;;;11.20;66.00;;;;;;5049566;28;20040;-70
2022/04/23 00:42:11;;;;;;;13.38;6.00;;;11.20;66.20;;;;;;5047646;28;20618;-72
2022/04/23 00:44:38;;;;;;;12.00;6.85;;;11.20;66.20;;;;;;5049836;28;20037;-69
2022/04/23 00:47:05;;;;;;;13.57;6.70;;;11.10;66.50;;;;;;5049305;28;20124;-69
2022/04/23 00:49:33;;;;;;;12.60;6.07;;;11.20;66.40;;;;;;5047756;28;20049;-69
2022/04/23 00:52:00;;;;;;;10.68;5.82;;;11.20;66.40;;;;;;5042342;28;20127;-70
2022/04/23 00:54:28;;;;;;;13.45;6.38;;;11.20;66.50;;;;;;5050145;28;20041;-70
2022/04/23 00:56:56;;;;;;;12.98;6.85;;;11.10;66.50;;;;;;5047867;28;20486;-72
2022/04/23 00:59:23;;;;;;;9.52;5.63;;;11.20;66.50;;;;;;5047781;28;20148;-70
2022/04/23 01:01:53;;;;;;;10.85;6.43;;;11.20;66.40;;;;;;5044881;28;20049;-70
2022/04/23 01:04:20;;;;;;;11.27;6.40;;;11.10;66.70;;;;;;5049275;28;20045;-71
2022/04/23 01:06:47;;;;;;;11.25;5.78;;;11.20;66.70;;;;;;5047734;28;20075;-71
2022/04/23 01:09:14;;;;;;;11.10;6.13;;;11.10;66.80;;;;;;5050987;28;20052;-69
2022/04/23 01:11:42;;;;;;;10.18;5.78;;;11.20;67.00;;;;;;5049350;28;20069;-70
2022/04/23 01:14:11;;;;;;;9.48;6.00;;;11.20;67.10;;;;;;5049512;28;20502;-70
2022/04/23 01:16:38;;;;;;;11.93;5.72;;;11.20;67.00;;;;;;5049054;28;20049;-69
2022/04/23 01:19:05;;;;;;;10.23;5.28;;;11.20;67.30;;;;;;5049140;28;20495;-70
2022/04/23 01:21:34;;;;;;;11.35;6.15;;;11.20;67.20;;;;;;5048869;28;20052;-69
2022/04/23 01:24:01;;;;;;;10.60;6.22;;;11.20;67.10;;;;;;5031825;28;20865;-68
2022/04/23 01:26:30;;;;;;;11.10;6.28;;;11.20;67.00;;;;;;5048906;28;20158;-69
2022/04/23 01:28:58;;;;;;;12.07;5.90;;;11.20;67.20;;;;;;5049880;28;20479;-70
2022/04/23 01:31:25;;;;;;;10.60;5.53;;;11.20;67.20;;;;;;5050989;28;20080;-70
2022/04/23 01:33:52;;;;;;;15.45;6.60;;;11.20;67.10;;;;;;5047403;28;20115;-71
2022/04/23 01:36:19;;;;;;;13.15;6.05;;;11.30;67.00;;;;;;5047221;28;20149;-69
2022/04/23 01:38:48;;;;;;;11.00;5.85;;;11.30;66.90;;;;;;5047349;28;20138;-70
2022/04/23 01:41:15;;;;;;;10.77;5.93;;;11.20;67.00;;;;;;5046424;28;20060;-69
2022/04/23 01:43:42;;;;;;;11.75;5.82;;;11.30;67.20;;;;;;5047732;28;20517;-71
2022/04/23 01:46:09;;;;;;;11.50;6.13;;;11.20;67.40;;;;;;5047667;28;20144;-69
2022/04/23 01:48:36;;;;;;;12.05;5.93;;;11.20;67.60;;;;;;5048553;28;20043;-69
2022/04/23 01:51:03;;;;;;;11.85;6.20;;;11.20;67.80;;;;;;5047479;28;20068;-69
2022/04/23 01:53:30;;;;;;;9.73;5.53;;;11.10;67.80;;;;;;5050153;28;20049;-70
2022/04/23 01:55:58;;;;;;;9.20;5.65;;;11.10;68.10;;;;;;5038489;28;20037;-70
2022/04/23 01:58:25;;;;;;;12.02;5.95;;;11.10;68.30;;;;;;5018788;28;20602;-68
2022/04/23 02:00:53;;;;;;;11.63;6.00;;;11.10;68.30;;;;;;5044827;28;20502;-71
2022/04/23 02:03:22;;;;;;;14.95;6.38;;;11.10;68.20;;;;;;5048883;28;20057;-70
2022/04/23 02:05:49;;;;;;;13.85;6.40;;;11.10;68.40;;;;;;5047908;28;20045;-71
2022/04/23 02:08:17;;;;;;;10.80;5.97;;;11.10;68.60;;;;;;5045424;28;20041;-69
2022/04/23 02:10:45;;;;;;;12.57;6.20;;;11.10;68.60;;;;;;5047045;28;20127;-69
2022/04/23 02:13:14;;;;;;;10.68;5.22;;;11.00;68.70;;;;;;5025675;28;20072;-69
2022/04/23 02:15:41;;;;;;;9.98;5.38;;;11.00;68.90;;;;;;5040234;28;20509;-69
2022/04/23 02:18:09;;;;;;;10.70;5.78;;;11.00;69.00;;;;;;5043328;28;20044;-70
2022/04/23 02:20:36;;;;;;;12.18;6.05;;;11.00;69.10;;;;;;5047250;28;20047;-69
2022/04/23 02:23:03;;;;;;;11.63;5.95;;;10.90;69.00;;;;;;5042620;28;20052;-70
2022/04/23 02:25:34;;;;;;;10.65;5.78;;;10.90;69.20;;;;;;5044389;28;20054;-70
2022/04/23 02:28:02;;;;;;;11.30;5.70;;;10.90;69.20;;;;;;5045119;28;20045;-70
2022/04/23 02:30:32;;;;;;;12.88;5.28;;;10.90;69.20;;;;;;5044475;28;20056;-70
2022/04/23 02:32:59;;;;;;;11.05;5.25;;;11.00;69.10;;;;;;5044734;28;20112;-69
2022/04/23 02:35:26;;;;;;;8.27;4.78;;;11.00;68.80;;;;;;5044852;28;20414;-70
2022/04/23 02:37:55;;;;;;;8.10;4.90;;;11.00;68.70;;;;;;5044009;28;20041;-70
2022/04/23 02:40:22;;;;;;;10.23;4.75;;;11.10;68.80;;;;;;5047419;28;20127;-70
2022/04/23 02:42:50;;;;;;;7.43;4.15;;;11.10;68.70;;;;;;5047948;28;20065;-70
2022/04/23 02:45:20;;;;;;;7.97;3.83;;;11.10;68.60;;;;;;5047521;28;20048;-69
2022/04/23 02:47:50;;;;;;;8.35;3.95;;;11.10;68.50;;;;;;5048808;28;20514;-70
2022/04/23 02:50:24;;;;;;;6.95;3.75;;;11.10;68.60;;;;;;5046791;28;20482;-69
2022/04/23 02:52:51;;;;;;;6.68;3.50;;;11.10;68.50;;;;;;5047576;28;20048;-70
2022/04/23 02:55:18;;;;;;;6.97;3.42;;;11.20;68.40;;;;;;5052395;28;20290;-70
2022/04/23 02:57:45;;;;;;;8.30;4.35;;;11.20;68.40;;;;;;5051399;28;20122;-71
2022/04/23 03:00:13;;;;;;;8.05;4.38;;;11.20;68.60;;;;;;5049396;28;20037;-71
2022/04/23 03:02:40;;;;;;;7.30;3.60;;;11.20;68.60;;;;;;5053510;28;20045;-71
2022/04/23 03:05:11;;;;;;;7.57;3.97;;;11.20;68.70;;;;;;5052412;28;20450;-69
2022/04/23 03:07:39;;;;;;;7.60;3.50;;;11.20;68.70;;;;;;5051659;28;20037;-69
2022/04/23 03:10:08;;;;;;;6.53;3.63;;;11.30;68.50;;;;;;5049926;28;20084;-70
2022/04/23 03:12:36;;;;;;;6.55;3.28;;;11.30;68.50;;;;;;5052381;28;20044;-70
2022/04/23 03:15:04;;;;;;;7.03;3.63;;;11.30;68.50;;;;;;5047633;28;20144;-70
2022/04/23 03:17:31;;;;;;;8.88;4.40;;;11.40;68.60;;;;;;5048526;28;20120;-70
2022/04/23 03:19:59;;;;;;;7.10;3.95;;;11.40;68.90;;;;;;5047380;28;20116;-69
2022/04/23 03:22:27;;;;;;;7.68;4.25;;;11.40;68.70;;;;;;5045285;28;20036;-69
2022/04/23 03:24:54;;;;;;;6.00;3.38;;;11.40;68.70;;;;;;5042832;28;20044;-71
2022/04/23 03:27:21;;;;;;;9.02;4.25;;;11.40;68.60;;;;;;5041097;28;20041;-68
2022/04/23 03:29:48;;;;;;;7.50;3.65;;;11.40;68.70;;;;;;5045757;28;20045;-69
2022/04/23 03:32:15;;;;;;;7.10;4.20;;;11.40;68.70;;;;;;5050559;28;21084;-68
2022/04/23 03:34:43;;;;;;;8.80;3.88;;;11.40;68.60;;;;;;5051179;28;20545;-68
2022/04/23 03:37:10;;;;;;;10.18;4.90;;;11.40;68.70;;;;;;5048328;28;20059;-69
2022/04/23 03:39:38;;;;;;;8.85;4.43;;;11.40;68.60;;;;;;5046237;28;20411;-71
2022/04/23 03:42:06;;;;;;;11.77;4.65;;;11.40;68.60;;;;;;5042530;28;20131;-69
2022/04/23 03:44:33;;;;;;;6.88;4.03;;;11.40;68.60;;;;;;5047545;28;20459;-70
2022/04/23 03:47:01;;;;;;;10.52;5.28;;;11.30;68.50;;;;;;5042415;28;20045;-68
2022/04/23 03:49:29;;;;;;;8.70;4.82;;;11.30;68.70;;;;;;5049906;28;20045;-69
2022/04/23 03:51:56;;;;;;;10.77;5.35;;;11.30;68.50;;;;;;5048352;28;20052;-69
2022/04/23 03:54:23;;;;;;;8.93;5.32;;;11.30;68.70;;;;;;5048908;28;20052;-70
2022/04/23 03:56:52;;;;;;;10.98;5.72;;;11.30;68.60;;;;;;5047920;28;20061;-69
2022/04/23 03:59:23;;;;;;;10.30;5.50;;;11.30;68.60;;;;;;5049948;28;20121;-70
2022/04/23 04:01:52;;;;;;;12.68;5.18;;;11.20;68.70;;;;;;5042626;28;20094;-71
2022/04/23 04:04:19;;;;;;;10.93;5.80;;;11.30;68.80;;;;;;5043077;28;20095;-71
2022/04/23 04:06:46;;;;;;;9.32;5.45;;;11.20;68.70;;;;;;5042202;28;20044;-68
2022/04/23 04:09:13;;;;;;;10.50;5.15;;;11.20;68.70;;;;;;5050031;28;20069;-70
2022/04/23 04:14:25;;;;;;;11.60;5.95;;;11.20;68.70;;;;;;5045219;28;20147;-71
2022/04/23 04:16:52;;;;;;;10.65;5.93;;;11.20;68.70;;;;;;5043394;28;20052;-72
2022/04/23 04:19:20;;;;;;;12.73;6.57;;;11.20;69.00;;;;;;5041765;28;20464;-71
2022/04/23 04:21:48;;;;;;;10.95;5.70;;;11.20;68.90;;;;;;5042565;28;20051;-70
2022/04/23 04:24:16;;;;;;;11.55;5.75;;;11.10;69.00;;;;;;5041134;28;20509;-70
2022/04/23 04:26:44;;;;;;;10.85;5.85;;;11.10;68.90;;;;;;5028643;28;20045;-68
2022/04/23 04:29:11;;;;;;;12.80;5.72;;;11.20;69.00;;;;;;5049497;28;20041;-70
2022/04/23 04:31:50;;;;;;;13.73;6.38;;;11.10;68.90;;;;;;5051520;28;20043;-70
2022/04/23 04:34:18;;;;;;;10.80;5.93;;;11.10;69.10;;;;;;5051231;28;20438;-69
2022/04/23 04:36:45;;;;;;;13.10;5.88;;;11.20;69.10;;;;;;5051233;28;20037;-71
2022/04/23 04:39:12;;;;;;;11.68;5.95;;;11.10;69.10;;;;;;5050692;28;20071;-71
2022/04/23 04:41:39;;;;;;;11.23;6.55;;;11.10;69.20;;;;;;5051685;28;20163;-71
2022/04/23 04:44:07;;;;;;;11.93;5.80;;;11.20;69.40;;;;;;5050018;28;20049;-70
2022/04/23 04:46:34;;;;;;;11.05;6.18;;;11.10;69.20;;;;;;5049910;28;20048;-68
2022/04/23 04:49:03;;;;;;;10.85;5.35;;;11.20;69.30;;;;;;5048242;28;20045;-71
2022/04/23 04:51:31;;;;;;;10.13;5.47;;;11.20;69.20;;;;;;5048852;28;20091;-71
2022/04/23 04:53:58;;;;;;;11.48;6.13;;;11.20;69.20;;;;;;5049642;28;20616;-71
2022/04/23 04:56:25;;;;;;;10.25;5.50;;;11.20;69.40;;;;;;5044883;28;20044;-71
2022/04/23 04:58:52;;;;;;;11.63;6.18;;;11.20;69.40;;;;;;5047748;28;20056;-70
2022/04/23 05:01:19;;;;;;;10.02;5.55;;;11.20;69.60;;;;;;5045343;28;20044;-70
2022/04/23 05:03:46;;;;;;;10.95;5.88;;;11.20;69.40;;;;;;5044168;28;20156;-70
2022/04/23 05:06:14;;;;;;;10.07;5.57;;;11.20;69.40;;;;;;5047622;28;20446;-69
2022/04/23 05:08:42;;;;;;;10.43;5.20;;;11.20;69.40;;;;;;5043166;28;20043;-70
2022/04/23 05:11:09;;;;;;;9.88;5.38;;;11.20;69.50;;;;;;5047467;28;20398;-70
2022/04/23 05:13:37;;;;;;;11.85;5.53;;;11.20;69.20;;;;;;5042619;28;20045;-69
2022/04/23 05:16:06;;;;;;;12.25;5.53;;;11.30;69.30;;;;;;5042208;28;20099;-70
2022/04/23 05:18:33;;;;;;;12.07;6.22;;;11.30;69.30;;;;;;5038507;28;20060;-70
2022/04/23 05:21:00;;;;;;;13.55;5.93;;;11.40;69.20;;;;;;5040375;28;20053;-69
2022/04/23 05:23:29;;;;;;;8.65;5.78;;;11.40;69.30;;;;;;5041663;28;20183;-70
2022/04/23 05:25:56;;;;;;;13.75;6.75;;;11.40;69.10;;;;;;5040409;28;20046;-70
2022/04/23 05:28:23;;;;;;;9.82;5.93;;;11.40;69.10;;;;;;5041714;28;20049;-69
2022/04/23 05:30:50;;;;;;;11.63;5.55;;;11.40;69.20;;;;;;5036804;28;21747;-70
2022/04/23 05:33:18;;;;;;;12.15;5.97;;;11.50;69.20;;;;;;5040450;28;20041;-69
2022/04/23 05:35:45;;;;;;;10.48;5.43;;;11.50;69.20;;;;;;5044676;28;20076;-70
2022/04/23 05:38:13;;;;;;;10.80;5.75;;;11.60;69.20;;;;;;5046966;28;20049;-70
2022/04/23 05:40:41;;;;;;;9.63;5.45;;;11.60;69.20;;;;;;5049387;28;20103;-70
2022/04/23 05:43:08;;;;;;;13.27;6.25;;;11.60;69.20;;;;;;5047314;28;20053;-70
2022/04/23 05:45:36;;;;;;;12.32;6.60;;;11.60;69.10;;;;;;5046589;28;20106;-70
2022/04/23 05:48:05;;;;;;;10.07;5.93;;;11.70;69.00;;;;;;5045862;28;20045;-70
2022/04/23 05:50:33;;;;;;;13.02;5.80;;;11.70;69.00;;;;;;5045138;28;20045;-70
2022/04/23 05:53:00;;;;;;;10.40;5.95;;;11.70;69.00;;;;;;5041267;28;20084;-70
2022/04/23 05:55:28;;;;;;;9.50;5.85;;;11.70;69.00;;;;;;5041854;28;20053;-70
2022/04/23 05:57:56;;;;;;;13.00;6.70;;;11.70;68.90;;;;;;5042072;28;20049;-69
2022/04/23 06:00:24;;;;;;;10.35;5.68;;;11.70;69.00;;;;;;5022261;28;20902;-69
2022/04/23 06:02:51;;;;;;;11.57;6.35;;;11.70;69.10;;;;;;5040449;28;20045;-70
2022/04/23 06:05:18;;;;;;;11.27;6.05;;;11.80;69.10;;;;;;5034750;28;20052;-70
2022/04/23 06:07:45;;;;;;;13.30;6.18;;;11.80;69.00;;;;;;5042284;28;20045;-71
2022/04/23 06:10:13;;;;;;;12.98;6.57;;;11.90;68.90;;;;;;5043566;28;20049;-69
2022/04/23 06:12:40;;;;;;;13.35;6.65;;;11.90;68.90;;;;;;5045762;28;20143;-64
2022/04/23 06:15:09;;;;;;;12.95;6.60;;;11.90;68.80;;;;;;5047344;28;20055;-62
2022/04/23 06:17:37;;;;;;;14.13;6.57;;;11.90;68.80;;;;;;5049096;28;20045;-64
2022/04/23 06:20:05;;;;;;;13.00;7.25;;;12.00;68.50;;;;;;5048385;28;20872;-64
2022/04/23 06:22:32;;;;;;;15.65;7.90;;;12.10;68.50;;;;;;5043417;28;20430;-65
2022/04/23 06:25:00;;;;;;;12.82;7.20;;;12.10;68.60;;;;;;5042941;28;20047;-64
2022/04/23 06:27:28;;;;;;;12.00;6.75;;;12.10;68.50;;;;;;5044914;28;20045;-65
2022/04/23 06:29:55;;;;;;;12.63;7.90;;;12.20;68.50;;;;;;5042082;28;20060;-63
2022/04/23 06:32:24;;;;;;;11.93;7.00;;;12.20;68.50;;;;;;5044825;28;20140;-63
2022/04/23 06:34:52;;;;;;;12.75;7.28;;;12.20;68.50;;;;;;5026235;28;20045;-64
2022/04/23 06:37:19;;;;;;;13.35;7.45;;;12.20;68.70;;;;;;5044641;28;21456;-63
2022/04/23 06:39:46;;;;;;;12.85;6.85;;;12.30;68.50;;;;;;5044488;28;20060;-63
2022/04/23 06:42:14;;;;;;;12.75;7.65;;;12.30;68.20;;;;;;5043542;28;20138;-65
2022/04/23 06:44:41;;;;;;;14.35;7.15;;;12.40;68.10;;;;;;5043374;28;20048;-64
2022/04/23 06:47:08;;;;;;;13.55;6.97;;;12.40;68.10;;;;;;5041997;28;20072;-65
2022/04/23 06:49:36;;;;;;;14.30;8.07;;;12.50;67.80;;;;;;5044414;28;20045;-64
2022/04/23 06:52:04;;;;;;;13.43;7.50;;;12.60;68.00;;;;;;5043043;28;20048;-64
2022/04/23 06:54:31;;;;;;;12.57;7.28;;;12.60;67.90;;;;;;5043177;28;21318;-64
2022/04/23 06:56:58;;;;;;;14.40;7.80;;;12.70;67.80;;;;;;5043022;28;20037;-65
2022/04/23 06:59:26;;;;;;;11.55;6.03;;;12.70;67.60;;;;;;5042825;28;20540;-63
2022/04/23 07:01:53;;;;;;;14.77;7.28;;;12.90;67.30;;;;;;5037372;28;20063;-66
2022/04/23 07:04:20;;;;;;;14.15;7.03;;;12.90;67.20;;;;;;5039281;28;20438;-64
2022/04/23 07:06:48;;;;;;;14.43;7.38;;;13.00;67.10;;;;;;5042626;28;20048;-63
2022/04/23 07:09:15;;;;;;;12.68;6.78;;;13.10;66.90;;;;;;5042884;28;20048;-63
2022/04/23 07:11:42;;;;;;;11.98;7.00;;;13.20;66.50;;;;;;5043241;28;20099;-64
2022/04/23 07:14:09;;;;;;;12.20;6.65;;;13.40;66.20;;;;;;5042178;28;20049;-66
2022/04/23 07:16:36;;;;;;;11.15;6.43;;;13.60;66.20;;;;;;5044575;28;20075;-64
2022/04/23 07:19:07;;;;;;;12.98;7.13;;;13.80;66.00;;;;;;5043997;28;20131;-63
2022/04/23 07:21:34;;;;;;;12.40;6.70;;;14.10;65.50;;;;;;5043085;28;20171;-64
2022/04/23 07:24:08;;;;;;;12.30;6.22;;;14.30;64.80;;;;;;5041206;28;20095;-63
2022/04/23 07:26:37;;;;;;;10.98;6.32;;;14.50;64.10;;;;;;5042957;28;21852;-64
2022/04/23 07:29:07;;;;;;;10.70;5.67;;;14.60;63.50;;;;;;5047567;28;20479;-65
2022/04/23 07:31:34;;;;;;;12.18;6.07;;;14.80;63.10;;;;;;5043460;28;20475;-64
2022/04/23 07:39:32;;;;;;;13.70;6.38;;;15.20;62.00;;;;;;5041728;28;20407;-64
2022/04/23 07:41:59;;;;;;;10.52;5.82;;;15.30;61.10;;;;;;5036124;28;20133;-65
2022/04/23 07:44:26;;;;;;;10.43;5.15;;;15.50;61.40;;;;;;5029070;28;20164;-65
2022/04/23 07:46:53;;;;;;;10.35;5.90;;;15.60;60.70;;;;;;5012581;28;20045;-65
2022/04/23 07:49:20;;;;;;;10.07;5.55;;;15.70;60.10;;;;;;5031585;28;20037;-63
2022/04/23 07:51:49;;;;;;;9.95;5.80;;;15.80;59.90;;;;;;5033367;28;20041;-64
2022/04/23 07:54:16;;;;;;;9.75;5.35;;;15.90;59.90;;;;;;5031103;28;20051;-64
2022/04/23 07:56:45;;;;;;;9.45;5.68;;;16.00;59.20;;;;;;5029687;28;20441;-64
2022/04/23 07:59:12;;;;;;;9.23;5.50;;;16.00;59.30;;;;;;5032297;28;20058;-64
2022/04/23 08:01:39;;;;;;;14.60;5.93;;;16.00;59.00;;;;;;5033409;28;20129;-65
2022/04/23 08:04:06;;;;;;;10.95;6.13;;;16.10;59.00;;;;;;5030646;28;20045;-65
2022/04/23 08:06:34;;;;;;;11.43;5.72;;;16.10;58.70;;;;;;5032055;28;20110;-65
2022/04/23 08:09:01;;;;;;;12.63;5.68;;;16.00;58.40;;;;;;5031068;28;20124;-66
2022/04/23 08:11:28;;;;;;;12.07;5.43;;;16.00;58.70;;;;;;5031497;28;20140;-65
2022/04/23 08:13:57;;;;;;;13.27;6.28;;;15.90;58.60;;;;;;5016628;28;20057;-63
2022/04/23 08:16:26;;;;;;;11.00;5.75;;;15.80;58.30;;;;;;5029979;28;20038;-65
2022/04/23 08:18:54;;;;;;;12.47;5.30;;;15.70;58.00;;;;;;5032306;28;20092;-65
2022/04/23 08:21:22;;;;;;;15.13;6.15;;;15.70;58.30;;;;;;5028755;28;20405;-65
2022/04/23 08:23:49;;;;;;;12.52;6.20;;;15.70;58.40;;;;;;5032467;28;20045;-64
2022/04/23 08:26:16;;;;;;;19.38;7.28;;;15.70;58.70;;;;;;5030835;28;20120;-65
2022/04/23 08:31:28;;;;;;;14.52;6.82;;;15.60;58.90;;;;;;5034284;28;20049;-64
2022/04/23 08:34:01;;;;;;;15.57;6.30;;;15.60;59.10;;;;;;5035667;28;20159;-64
2022/04/23 08:36:30;;;;;;;11.23;5.88;;;15.60;59.00;;;;;;5036701;28;20037;-65
2022/04/23 08:39:00;;;;;;;13.65;6.32;;;15.50;58.80;;;;;;5038226;28;20506;-66
2022/04/23 08:41:32;;;;;;;14.32;6.40;;;15.60;58.70;;;;;;5021210;28;20053;-64
2022/04/23 08:44:05;;;;;;;14.68;7.95;;;15.60;59.00;;;;;;5025839;28;20132;-65
2022/04/23 08:46:34;;;;;;;14.57;7.40;;;15.50;59.50;;;;;;5029440;28;20134;-65
2022/04/23 08:49:13;;;;;;;16.85;7.90;;;15.50;59.80;;;;;;5024380;28;20034;-67
2022/04/23 08:51:41;;;;;;;19.95;8.00;;;15.50;60.20;;;;;;5027930;28;20092;-65
2022/04/23 08:54:11;;;;;;;15.60;7.78;;;15.40;60.60;;;;;;5027742;28;20475;-66
2022/04/23 08:56:39;;;;;;;16.13;7.95;;;15.40;60.40;;;;;;5003209;28;21088;-65
2022/04/23 08:59:10;;;;;;;15.88;7.65;;;15.40;60.20;;;;;;5028806;28;20491;-65
2022/04/23 09:01:39;;;;;;;13.27;7.57;;;15.30;60.70;;;;;;5028257;28;20098;-64
2022/04/23 09:04:07;;;;;;;13.07;7.25;;;15.30;60.80;;;;;;5027079;28;20364;-65
2022/04/23 09:06:36;;;;;;;13.25;7.82;;;15.20;60.70;;;;;;5028499;28;20046;-64
2022/04/23 09:09:07;;;;;;;14.43;6.53;;;15.10;60.70;;;;;;5027132;28;20571;-65
2022/04/23 09:11:36;;;;;;;14.02;7.78;;;15.10;60.90;;;;;;5030608;28;20069;-64
2022/04/23 09:14:04;;;;;;;15.27;7.90;;;15.00;60.90;;;;;;5029117;28;20068;-67
2022/04/23 09:25:05;;;;;;;14.18;8.05;;;15.00;61.50;;;;;;5027960;28;20053;-66
2022/04/23 09:27:34;;;;;;;14.73;7.40;;;15.10;61.60;;;;;;5028456;28;20448;-66
2022/04/23 09:30:03;;;;;;;17.80;8.52;;;15.10;61.50;;;;;;5028563;28;20064;-64
2022/04/23 09:32:30;;;;;;;15.85;7.97;;;15.10;61.40;;;;;;5027680;28;20051;-65
2022/04/23 09:35:10;;;;;;;14.55;7.47;;;15.10;61.40;;;;;;5030612;28;20052;-65
2022/04/23 09:40:23;;;;;;;15.43;7.40;;;15.00;61.60;;;;;;5029718;28;20502;-65
2022/04/23 09:42:56;;;;;;;15.00;8.23;;;15.00;61.30;;;;;;5028202;28;20053;-65
2022/04/23 09:45:26;;;;;;;16.95;7.97;;;15.00;61.40;;;;;;5030238;28;20046;-65
2022/04/23 09:47:54;;;;;;;15.90;7.85;;;15.00;61.40;;;;;;5029786;28;20046;-65
2022/04/23 09:50:22;;;;;;;12.63;7.28;;;15.00;61.30;;;;;;5028814;28;20049;-65
2022/04/23 09:52:50;;;;;;;14.23;7.68;;;15.00;61.30;;;;;;5030125;28;20050;-64
2022/04/23 09:55:20;;;;;;;16.58;7.97;;;15.00;61.40;;;;;;5030409;28;20161;-64
2022/04/23 09:57:48;;;;;;;15.38;8.52;;;15.00;61.40;;;;;;5030337;28;20487;-65
2022/04/23 10:00:16;;;;;;;19.65;8.43;;;15.00;61.60;;;;;;5025503;28;20128;-64
2022/04/23 10:02:45;;;;;;;16.52;8.05;;;15.00;61.40;;;;;;5010004;28;20041;-65
2022/04/23 10:05:17;;;;;;;18.83;8.88;;;15.00;61.30;;;;;;5028057;28;20064;-65
2022/04/23 10:07:49;;;;;;;17.30;8.68;;;15.00;61.30;;;;;;5023829;28;20395;-66
2022/04/23 10:10:18;;;;;;;15.00;7.18;;;15.00;61.20;;;;;;5028746;28;20100;-66
2022/04/23 10:12:47;;;;;;;14.38;7.32;;;15.10;61.40;;;;;;5025543;28;20068;-65
2022/04/23 10:15:15;;;;;;;15.25;5.93;;;15.20;61.50;;;;;;5025334;28;20037;-64
2022/04/23 10:17:43;;;;;;;17.33;7.90;;;15.20;61.50;;;;;;5024902;28;20033;-66
2022/04/23 10:20:12;;;;;;;13.68;7.28;;;15.30;61.10;;;;;;5026882;28;20446;-65
2022/04/23 10:22:54;;;;;;;16.30;8.15;;;15.40;61.20;;;;;;5025600;28;20029;-65
2022/04/23 10:25:30;;;;;;;15.15;7.40;;;15.40;60.60;;;;;;5025079;28;20653;-65
2022/04/23 10:27:59;;;;;;;14.15;7.60;;;15.50;60.30;;;;;;5028666;28;20140;-65
2022/04/23 10:30:28;;;;;;;14.80;8.02;;;15.60;60.30;;;;;;5026318;28;20044;-64
2022/04/23 10:32:55;;;;;;;16.88;7.10;;;15.70;60.60;;;;;;5024521;28;20042;-64
2022/04/23 10:35:35;;;;;;;11.73;6.50;;;15.70;60.30;;;;;;5024924;28;20052;-65
2022/04/23 10:38:21;;;;;;;15.30;7.88;;;15.90;60.40;;;;;;5026594;28;20049;-65
2022/04/23 10:40:53;;;;;;;12.45;6.28;;;15.90;59.80;;;;;;5018366;28;20180;-65
2022/04/23 10:43:20;;;;;;;15.05;7.22;;;15.90;59.70;;;;;;5043190;28;20049;-65
2022/04/23 10:45:48;;;;;;;12.90;7.47;;;16.00;59.30;;;;;;5048335;28;20052;-65
2022/04/23 10:48:32;;;;;;;15.35;7.82;;;16.10;59.10;;;;;;5047917;28;20455;-65
2022/04/23 10:51:08;;;;;;;14.82;7.93;;;16.10;59.10;;;;;;5046553;28;20037;-65
2022/04/23 10:53:56;;;;;;;13.80;7.43;;;16.10;58.10;;;;;;5048909;28;20041;-65
2022/04/23 10:56:26;;;;;;;14.23;7.13;;;16.10;58.30;;;;;;5049278;28;20108;-65
2022/04/23 10:58:53;;;;;;;17.30;8.30;;;16.10;58.30;;;;;;5047174;28;20045;-66
2022/04/23 11:01:22;;;;;;;13.15;6.82;;;16.10;58.00;;;;;;5045580;28;20068;-65
2022/04/23 11:04:12;;;;;;;14.13;7.32;;;16.10;58.10;;;;;;5048392;28;20128;-65
2022/04/23 11:12:32;;;;;;;12.82;6.95;;;16.50;58.10;;;;;;5048590;28;20068;-65
2022/04/23 11:15:01;;;;;;;12.25;6.68;;;16.60;58.00;;;;;;5052370;28;20098;-65
2022/04/23 11:17:58;;;;;;;10.38;6.10;;;16.70;57.20;;;;;;5051312;28;20045;-67
2022/04/23 11:20:36;;;;;;;12.15;6.22;;;16.70;57.30;;;;;;5048755;28;20413;-65
2022/04/23 11:23:05;;;;;;;13.70;6.88;;;16.70;57.50;;;;;;5035293;28;20041;-65
2022/04/23 11:25:34;;;;;;;13.38;6.68;;;16.70;57.00;;;;;;5050852;28;20048;-64
2022/04/23 11:28:23;;;;;;;10.70;6.30;;;16.60;56.20;;;;;;5050876;28;20076;-64
2022/04/23 11:30:52;;;;;;;11.18;5.53;;;16.60;56.30;;;;;;5051075;28;20045;-66
2022/04/23 11:33:19;;;;;;;10.32;5.18;;;16.60;56.30;;;;;;5050199;28;20064;-65
2022/04/23 11:35:46;;;;;;;11.35;6.18;;;16.60;56.40;;;;;;5052666;28;20047;-65
2022/04/23 11:38:21;;;;;;;11.27;5.72;;;16.60;56.10;;;;;;5050949;28;20033;-66
2022/04/23 11:40:49;;;;;;;12.70;6.03;;;16.60;56.30;;;;;;5049887;28;20490;-69
2022/04/23 11:43:33;;;;;;;8.90;5.43;;;16.60;56.50;;;;;;5039939;28;20074;-69
2022/04/23 11:46:08;;;;;;;10.70;5.57;;;16.60;56.40;;;;;;5040505;28;20127;-70
2022/04/23 11:48:46;;;;;;;12.32;6.30;;;16.60;56.40;;;;;;5039471;28;20614;-69
2022/04/23 11:51:14;;;;;;;11.70;6.32;;;16.60;56.00;;;;;;5038072;28;20545;-69
2022/04/23 11:53:56;;;;;;;10.38;6.43;;;16.60;56.00;;;;;;5039056;28;20073;-70
2022/04/23 11:56:27;;;;;;;11.43;6.10;;;16.60;55.60;;;;;;5035760;28;20057;-67
2022/04/23 11:58:56;;;;;;;11.43;6.20;;;16.60;55.20;;;;;;5036887;28;20553;-69
2022/04/23 12:01:25;;;;;;;11.02;5.72;;;16.60;55.50;;;;;;5036566;28;20558;-69
2022/04/23 12:03:53;;;;;;;11.60;5.93;;;16.60;55.40;;;;;;5036431;28;20044;-70
2022/04/23 12:06:20;;;;;;;11.18;5.53;;;16.60;55.50;;;;;;5036962;28;20057;-69
2022/04/23 12:08:47;;;;;;;9.77;5.22;;;16.60;55.90;;;;;;5018900;28;20132;-69
2022/04/23 12:11:22;;;;;;;9.23;5.07;;;16.70;56.10;;;;;;5036280;28;20060;-69
2022/04/23 12:13:50;;;;;;;9.48;5.30;;;16.80;56.10;;;;;;5040285;28;20128;-69
2022/04/23 12:16:37;;;;;;;10.57;5.55;;;16.90;56.20;;;;;;5038957;28;20045;-70
2022/04/23 12:19:06;;;;;;;11.68;5.35;;;17.00;55.70;;;;;;5035583;28;20046;-71
2022/04/23 12:21:33;;;;;;;9.82;5.35;;;17.00;54.90;;;;;;5036491;28;20053;-70
2022/04/23 12:24:09;;;;;;;10.50;5.53;;;17.00;53.60;;;;;;5040721;28;20084;-71
2022/04/23 12:26:37;;;;;;;10.43;5.63;;;16.90;53.70;;;;;;5037034;28;20124;-70
2022/04/23 12:43:22;;;;;;;7.63;4.20;;;17.00;53.40;;;;;;5040651;28;20045;-69
2022/04/23 12:45:51;;;;;;;10.00;4.95;;;17.10;53.20;;;;;;5040982;28;20050;-70
2022/04/23 12:48:19;;;;;;;7.25;3.72;;;17.10;53.40;;;;;;5042328;28;20036;-71
2022/04/23 12:50:46;;;;;;;8.70;4.53;;;17.20;53.50;;;;;;5041532;28;20072;-69
2022/04/23 12:53:28;;;;;;;9.77;4.82;;;17.20;52.60;;;;;;5041106;28;20133;-71
2022/04/23 12:55:55;;;;;;;9.20;4.85;;;17.30;52.80;;;;;;5039344;28;20499;-69
2022/04/23 12:58:22;;;;;;;10.15;5.82;;;17.30;53.00;;;;;;5040768;28;20033;-70
2022/04/23 13:00:52;;;;;;;10.57;5.53;;;17.30;52.50;;;;;;5018965;28;20049;-69
2022/04/23 13:03:29;;;;;;;9.50;4.97;;;17.30;52.50;;;;;;5040990;28;20045;-69
2022/04/23 13:05:56;;;;;;;9.27;5.18;;;17.30;52.30;;;;;;5040055;28;20045;-70
2022/04/23 13:13:53;;;;;;;7.85;3.92;;;17.30;52.10;;;;;;5034715;28;20041;-69
2022/04/23 13:16:22;;;;;;;7.80;5.07;;;17.30;52.30;;;;;;5038029;28;20407;-69
2022/04/23 13:18:49;;;;;;;10.43;4.67;;;17.30;51.80;;;;;;5037513;28;20073;-69
2022/04/23 13:21:16;;;;;;;9.48;4.55;;;17.30;52.20;;;;;;5034851;28;20051;-69
2022/04/23 13:23:43;;;;;;;8.25;4.38;;;17.30;51.80;;;;;;5035458;28;20041;-70
2022/04/23 13:26:10;;;;;;;7.68;4.45;;;17.30;52.00;;;;;;5036520;28;20119;-71
2022/04/23 13:28:40;;;;;;;9.43;4.47;;;17.40;52.00;;;;;;5034249;28;20042;-68
2022/04/23 13:31:07;;;;;;;8.52;4.60;;;17.40;52.00;;;;;;5029160;28;20047;-70
2022/04/23 13:33:35;;;;;;;10.35;5.00;;;17.50;52.30;;;;;;5040073;28;20461;-65